sensor_id;sensor_type;location;lat;lon;timestamp;P1;durP1;ratioP1;P2;durP2;ratioP2
7045;SDS011;3564;53.326;10.356;2023-02-28T00:00:28;10.07;;;6.90;;
7045;SDS011;3564;53.326;10.356;2023-02-28T00:02:53;7.37;;;5.80;;
7045;SDS011;3564;53.326;10.356;2023-02-28T00:05:21;6.53;;;4.03;;
7045;SDS011;3564;53.326;10.356;2023-02-28T00:07:49;7.07;;;3.70;;
7045;SDS011;3564;53.326;10.356;2023-02-28T00:10:17;6.77;;;4.50;;
7045;SDS011;3564;53.326;10.356;2023-02-28T00:12:49;4.33;;;3.70;;
7045;SDS011;3564;53.326;10.356;2023-02-28T00:15:32;6.20;;;3.97;;
7045;SDS011;3564;53.326;10.356;2023-02-28T00:17:58;8.93;;;4.33;;
7045;SDS011;3564;53.326;10.356;2023-02-28T00:20:24;6.80;;;3.93;;
7045;SDS011;3564;53.326;10.356;2023-02-28T00:22:51;5.07;;;3.50;;
7045;SDS011;3564;53.326;10.356;2023-02-28T00:25:18;4.83;;;3.77;;
7045;SDS011;3564;53.326;10.356;2023-02-28T00:27:47;5.23;;;3.40;;
7045;SDS011;3564;53.326;10.356;2023-02-28T00:30:14;6.97;;;3.57;;
7045;SDS011;3564;53.326;10.356;2023-02-28T00:32:42;4.03;;;3.30;;
7045;SDS011;3564;53.326;10.356;2023-02-28T00:35:08;4.57;;;3.10;;
7045;SDS011;3564;53.326;10.356;2023-02-28T00:37:34;6.67;;;4.87;;
7045;SDS011;3564;53.326;10.356;2023-02-28T00:40:00;6.17;;;4.20;;
7045;SDS011;3564;53.326;10.356;2023-02-28T00:42:26;6.40;;;3.80;;
7045;SDS011;3564;53.326;10.356;2023-02-28T00:44:53;4.50;;;3.00;;
7045;SDS011;3564;53.326;10.356;2023-02-28T00:47:19;4.87;;;3.60;;
7045;SDS011;3564;53.326;10.356;2023-02-28T00:49:44;5.20;;;3.50;;
7045;SDS011;3564;53.326;10.356;2023-02-28T00:52:12;3.60;;;3.30;;
7045;SDS011;3564;53.326;10.356;2023-02-28T00:54:37;5.23;;;3.30;;
7045;SDS011;3564;53.326;10.356;2023-02-28T00:57:03;6.03;;;3.93;;
7045;SDS011;3564;53.326;10.356;2023-02-28T00:59:29;4.43;;;3.60;;
7045;SDS011;3564;53.326;10.356;2023-02-28T01:01:54;4.67;;;3.30;;
7045;SDS011;3564;53.326;10.356;2023-02-28T01:04:20;4.17;;;3.17;;
7045;SDS011;3564;53.326;10.356;2023-02-28T01:06:45;5.70;;;3.67;;
7045;SDS011;3564;53.326;10.356;2023-02-28T01:09:11;6.67;;;3.87;;
7045;SDS011;3564;53.326;10.356;2023-02-28T01:11:37;6.13;;;4.80;;
7045;SDS011;3564;53.326;10.356;2023-02-28T01:14:04;7.37;;;4.87;;
7045;SDS011;3564;53.326;10.356;2023-02-28T01:16:30;9.47;;;6.17;;
7045;SDS011;3564;53.326;10.356;2023-02-28T01:18:55;7.77;;;5.60;;
7045;SDS011;3564;53.326;10.356;2023-02-28T01:21:21;8.17;;;6.03;;
7045;SDS011;3564;53.326;10.356;2023-02-28T01:23:47;8.20;;;5.67;;
7045;SDS011;3564;53.326;10.356;2023-02-28T01:26:18;8.40;;;6.33;;
7045;SDS011;3564;53.326;10.356;2023-02-28T01:28:45;11.27;;;6.63;;
7045;SDS011;3564;53.326;10.356;2023-02-28T01:31:11;10.67;;;6.43;;
7045;SDS011;3564;53.326;10.356;2023-02-28T01:33:38;9.67;;;6.60;;
7045;SDS011;3564;53.326;10.356;2023-02-28T01:36:22;9.63;;;6.53;;
7045;SDS011;3564;53.326;10.356;2023-02-28T01:38:52;10.53;;;7.57;;
7045;SDS011;3564;53.326;10.356;2023-02-28T01:41:20;10.00;;;6.73;;
7045;SDS011;3564;53.326;10.356;2023-02-28T01:46:13;9.77;;;6.53;;
7045;SDS011;3564;53.326;10.356;2023-02-28T01:48:43;10.07;;;6.50;;
7045;SDS011;3564;53.326;10.356;2023-02-28T01:51:14;10.47;;;6.80;;
7045;SDS011;3564;53.326;10.356;2023-02-28T01:53:45;10.73;;;6.97;;
7045;SDS011;3564;53.326;10.356;2023-02-28T01:56:17;8.83;;;6.83;;
7045;SDS011;3564;53.326;10.356;2023-02-28T01:58:48;9.87;;;7.53;;
7045;SDS011;3564;53.326;10.356;2023-02-28T02:01:16;9.57;;;6.13;;
7045;SDS011;3564;53.326;10.356;2023-02-28T02:04:04;9.37;;;6.60;;
7045;SDS011;3564;53.326;10.356;2023-02-28T02:06:37;11.07;;;6.10;;
7045;SDS011;3564;53.326;10.356;2023-02-28T02:09:07;7.97;;;5.93;;
7045;SDS011;3564;53.326;10.356;2023-02-28T02:11:33;11.07;;;6.53;;
7045;SDS011;3564;53.326;10.356;2023-02-28T02:14:04;10.47;;;7.50;;
7045;SDS011;3564;53.326;10.356;2023-02-28T02:19:52;10.53;;;6.90;;
7045;SDS011;3564;53.326;10.356;2023-02-28T02:25:22;7.80;;;5.97;;
7045;SDS011;3564;53.326;10.356;2023-02-28T02:30:42;8.60;;;6.50;;
7045;SDS011;3564;53.326;10.356;2023-02-28T02:35:54;9.03;;;6.63;;
7045;SDS011;3564;53.326;10.356;2023-02-28T02:41:24;13.73;;;7.10;;
7045;SDS011;3564;53.326;10.356;2023-02-28T02:43:56;12.07;;;7.10;;
7045;SDS011;3564;53.326;10.356;2023-02-28T02:46:33;11.37;;;6.80;;
7045;SDS011;3564;53.326;10.356;2023-02-28T02:49:03;11.77;;;7.03;;
7045;SDS011;3564;53.326;10.356;2023-02-28T02:51:33;10.93;;;7.07;;
7045;SDS011;3564;53.326;10.356;2023-02-28T02:56:32;8.50;;;7.37;;
7045;SDS011;3564;53.326;10.356;2023-02-28T02:59:01;8.00;;;6.53;;
7045;SDS011;3564;53.326;10.356;2023-02-28T03:01:30;10.87;;;7.23;;
7045;SDS011;3564;53.326;10.356;2023-02-28T03:04:02;9.53;;;6.93;;
7045;SDS011;3564;53.326;10.356;2023-02-28T03:06:32;9.10;;;6.50;;
7045;SDS011;3564;53.326;10.356;2023-02-28T03:09:00;12.10;;;6.10;;
7045;SDS011;3564;53.326;10.356;2023-02-28T03:11:26;9.57;;;6.30;;
7045;SDS011;3564;53.326;10.356;2023-02-28T03:13:54;8.67;;;6.27;;
7045;SDS011;3564;53.326;10.356;2023-02-28T03:27:52;8.80;;;6.03;;
7045;SDS011;3564;53.326;10.356;2023-02-28T03:33:14;8.83;;;6.47;;
7045;SDS011;3564;53.326;10.356;2023-02-28T03:35:45;8.83;;;6.33;;
7045;SDS011;3564;53.326;10.356;2023-02-28T03:38:17;8.60;;;6.23;;
7045;SDS011;3564;53.326;10.356;2023-02-28T03:41:06;9.53;;;6.87;;
7045;SDS011;3564;53.326;10.356;2023-02-28T03:43:34;8.40;;;6.23;;
7045;SDS011;3564;53.326;10.356;2023-02-28T03:46:05;9.40;;;6.50;;
7045;SDS011;3564;53.326;10.356;2023-02-28T03:48:40;9.23;;;6.40;;
7045;SDS011;3564;53.326;10.356;2023-02-28T03:51:14;8.63;;;6.53;;
7045;SDS011;3564;53.326;10.356;2023-02-28T03:53:48;7.60;;;6.17;;
7045;SDS011;3564;53.326;10.356;2023-02-28T03:56:19;9.03;;;6.00;;
7045;SDS011;3564;53.326;10.356;2023-02-28T03:58:57;10.03;;;5.87;;
7045;SDS011;3564;53.326;10.356;2023-02-28T04:01:39;8.13;;;5.87;;
7045;SDS011;3564;53.326;10.356;2023-02-28T04:04:10;8.87;;;6.47;;
7045;SDS011;3564;53.326;10.356;2023-02-28T04:06:37;9.47;;;6.27;;
7045;SDS011;3564;53.326;10.356;2023-02-28T04:09:04;10.50;;;6.40;;
7045;SDS011;3564;53.326;10.356;2023-02-28T04:11:38;8.37;;;6.43;;
7045;SDS011;3564;53.326;10.356;2023-02-28T04:14:09;7.03;;;5.60;;
7045;SDS011;3564;53.326;10.356;2023-02-28T04:16:38;7.17;;;5.57;;
7045;SDS011;3564;53.326;10.356;2023-02-28T04:19:05;8.40;;;5.87;;
7045;SDS011;3564;53.326;10.356;2023-02-28T04:21:33;9.10;;;5.63;;
7045;SDS011;3564;53.326;10.356;2023-02-28T04:24:06;6.47;;;5.23;;
7045;SDS011;3564;53.326;10.356;2023-02-28T04:26:38;9.10;;;5.63;;
7045;SDS011;3564;53.326;10.356;2023-02-28T04:29:05;7.67;;;5.23;;
7045;SDS011;3564;53.326;10.356;2023-02-28T04:31:32;7.70;;;5.50;;
7045;SDS011;3564;53.326;10.356;2023-02-28T04:33:59;6.83;;;5.30;;
7045;SDS011;3564;53.326;10.356;2023-02-28T04:36:25;7.77;;;5.03;;
7045;SDS011;3564;53.326;10.356;2023-02-28T04:38:51;9.23;;;5.27;;
7045;SDS011;3564;53.326;10.356;2023-02-28T04:41:16;8.13;;;4.90;;
7045;SDS011;3564;53.326;10.356;2023-02-28T04:43:42;7.80;;;5.10;;
7045;SDS011;3564;53.326;10.356;2023-02-28T04:46:08;7.20;;;4.80;;
7045;SDS011;3564;53.326;10.356;2023-02-28T04:48:36;7.53;;;5.57;;
7045;SDS011;3564;53.326;10.356;2023-02-28T04:51:07;6.00;;;4.50;;
7045;SDS011;3564;53.326;10.356;2023-02-28T04:53:36;7.20;;;5.00;;
7045;SDS011;3564;53.326;10.356;2023-02-28T04:56:04;6.47;;;4.90;;
7045;SDS011;3564;53.326;10.356;2023-02-28T04:58:31;7.37;;;4.50;;
7045;SDS011;3564;53.326;10.356;2023-02-28T05:01:04;7.33;;;5.10;;
7045;SDS011;3564;53.326;10.356;2023-02-28T05:04:01;6.53;;;5.13;;
7045;SDS011;3564;53.326;10.356;2023-02-28T05:06:28;8.67;;;5.33;;
7045;SDS011;3564;53.326;10.356;2023-02-28T05:08:56;7.67;;;5.20;;
7045;SDS011;3564;53.326;10.356;2023-02-28T05:13:54;7.00;;;4.53;;
7045;SDS011;3564;53.326;10.356;2023-02-28T05:16:20;8.17;;;5.03;;
7045;SDS011;3564;53.326;10.356;2023-02-28T05:18:46;7.80;;;4.87;;
7045;SDS011;3564;53.326;10.356;2023-02-28T05:21:17;5.00;;;4.40;;
7045;SDS011;3564;53.326;10.356;2023-02-28T05:23:54;6.93;;;5.17;;
7045;SDS011;3564;53.326;10.356;2023-02-28T05:26:21;7.57;;;5.20;;
7045;SDS011;3564;53.326;10.356;2023-02-28T05:28:47;6.97;;;5.00;;
7045;SDS011;3564;53.326;10.356;2023-02-28T05:31:13;9.67;;;5.10;;
7045;SDS011;3564;53.326;10.356;2023-02-28T05:33:38;7.77;;;4.97;;
7045;SDS011;3564;53.326;10.356;2023-02-28T05:36:04;7.40;;;4.57;;
7045;SDS011;3564;53.326;10.356;2023-02-28T05:38:31;5.77;;;4.53;;
7045;SDS011;3564;53.326;10.356;2023-02-28T05:40:56;10.47;;;5.00;;
7045;SDS011;3564;53.326;10.356;2023-02-28T05:43:22;6.93;;;4.83;;
7045;SDS011;3564;53.326;10.356;2023-02-28T05:45:48;6.60;;;4.80;;
7045;SDS011;3564;53.326;10.356;2023-02-28T05:48:13;7.53;;;5.20;;
7045;SDS011;3564;53.326;10.356;2023-02-28T05:50:39;6.10;;;4.50;;
7045;SDS011;3564;53.326;10.356;2023-02-28T05:53:05;6.70;;;4.40;;
7045;SDS011;3564;53.326;10.356;2023-02-28T05:55:31;7.03;;;4.83;;
7045;SDS011;3564;53.326;10.356;2023-02-28T05:57:58;8.40;;;5.20;;
7045;SDS011;3564;53.326;10.356;2023-02-28T06:00:24;8.00;;;4.80;;
7045;SDS011;3564;53.326;10.356;2023-02-28T06:02:49;6.80;;;5.03;;
7045;SDS011;3564;53.326;10.356;2023-02-28T06:05:17;6.43;;;4.80;;
7045;SDS011;3564;53.326;10.356;2023-02-28T06:07:43;9.10;;;5.27;;
7045;SDS011;3564;53.326;10.356;2023-02-28T06:10:10;7.97;;;4.97;;
7045;SDS011;3564;53.326;10.356;2023-02-28T06:12:37;7.30;;;5.20;;
7045;SDS011;3564;53.326;10.356;2023-02-28T06:15:03;9.97;;;5.67;;
7045;SDS011;3564;53.326;10.356;2023-02-28T06:17:31;9.97;;;5.47;;
7045;SDS011;3564;53.326;10.356;2023-02-28T06:19:57;7.53;;;5.50;;
7045;SDS011;3564;53.326;10.356;2023-02-28T06:22:22;6.67;;;5.30;;
7045;SDS011;3564;53.326;10.356;2023-02-28T06:24:48;8.73;;;5.00;;
7045;SDS011;3564;53.326;10.356;2023-02-28T06:27:13;6.13;;;4.77;;
7045;SDS011;3564;53.326;10.356;2023-02-28T06:29:39;8.13;;;4.87;;
7045;SDS011;3564;53.326;10.356;2023-02-28T06:32:05;9.73;;;5.17;;
7045;SDS011;3564;53.326;10.356;2023-02-28T06:34:31;6.83;;;4.73;;
7045;SDS011;3564;53.326;10.356;2023-02-28T06:37:01;8.30;;;5.17;;
7045;SDS011;3564;53.326;10.356;2023-02-28T06:39:27;5.93;;;4.87;;
7045;SDS011;3564;53.326;10.356;2023-02-28T06:41:56;7.50;;;5.37;;
7045;SDS011;3564;53.326;10.356;2023-02-28T06:44:22;6.40;;;4.97;;
7045;SDS011;3564;53.326;10.356;2023-02-28T06:46:48;6.97;;;5.07;;
7045;SDS011;3564;53.326;10.356;2023-02-28T06:49:14;9.83;;;5.27;;
7045;SDS011;3564;53.326;10.356;2023-02-28T06:51:41;5.40;;;4.83;;
7045;SDS011;3564;53.326;10.356;2023-02-28T06:54:11;7.60;;;5.23;;
7045;SDS011;3564;53.326;10.356;2023-02-28T06:56:37;6.07;;;5.20;;
7045;SDS011;3564;53.326;10.356;2023-02-28T06:59:03;7.87;;;5.03;;
7045;SDS011;3564;53.326;10.356;2023-02-28T07:01:29;6.13;;;4.50;;
7045;SDS011;3564;53.326;10.356;2023-02-28T07:03:57;6.93;;;4.53;;
7045;SDS011;3564;53.326;10.356;2023-02-28T07:06:22;7.63;;;5.27;;
7045;SDS011;3564;53.326;10.356;2023-02-28T07:08:49;6.50;;;4.73;;
7045;SDS011;3564;53.326;10.356;2023-02-28T07:11:15;7.60;;;4.70;;
7045;SDS011;3564;53.326;10.356;2023-02-28T07:13:41;8.13;;;4.83;;
7045;SDS011;3564;53.326;10.356;2023-02-28T07:16:07;8.27;;;5.40;;
7045;SDS011;3564;53.326;10.356;2023-02-28T07:18:37;6.20;;;5.30;;
7045;SDS011;3564;53.326;10.356;2023-02-28T07:21:06;8.50;;;5.23;;
7045;SDS011;3564;53.326;10.356;2023-02-28T07:23:37;7.60;;;5.03;;
7045;SDS011;3564;53.326;10.356;2023-02-28T07:26:04;7.60;;;5.13;;
7045;SDS011;3564;53.326;10.356;2023-02-28T07:28:31;8.63;;;5.53;;
7045;SDS011;3564;53.326;10.356;2023-02-28T07:30:56;9.17;;;5.53;;
7045;SDS011;3564;53.326;10.356;2023-02-28T07:33:22;7.33;;;5.27;;
7045;SDS011;3564;53.326;10.356;2023-02-28T07:35:48;10.97;;;5.83;;
7045;SDS011;3564;53.326;10.356;2023-02-28T07:38:14;10.33;;;5.80;;
7045;SDS011;3564;53.326;10.356;2023-02-28T07:40:40;9.43;;;6.20;;
7045;SDS011;3564;53.326;10.356;2023-02-28T07:43:06;9.33;;;5.70;;
7045;SDS011;3564;53.326;10.356;2023-02-28T07:45:31;12.10;;;6.00;;
7045;SDS011;3564;53.326;10.356;2023-02-28T07:47:59;10.03;;;6.37;;
7045;SDS011;3564;53.326;10.356;2023-02-28T07:50:26;11.60;;;6.00;;
7045;SDS011;3564;53.326;10.356;2023-02-28T07:52:55;8.53;;;6.20;;
7045;SDS011;3564;53.326;10.356;2023-02-28T07:55:22;7.17;;;5.30;;
7045;SDS011;3564;53.326;10.356;2023-02-28T07:57:47;9.33;;;5.53;;
7045;SDS011;3564;53.326;10.356;2023-02-28T08:00:13;7.90;;;6.13;;
7045;SDS011;3564;53.326;10.356;2023-02-28T08:02:39;8.73;;;5.70;;
7045;SDS011;3564;53.326;10.356;2023-02-28T08:05:05;10.80;;;6.70;;
7045;SDS011;3564;53.326;10.356;2023-02-28T08:07:32;11.77;;;7.73;;
7045;SDS011;3564;53.326;10.356;2023-02-28T08:10:00;11.07;;;7.10;;
7045;SDS011;3564;53.326;10.356;2023-02-28T08:12:25;14.17;;;8.00;;
7045;SDS011;3564;53.326;10.356;2023-02-28T08:14:51;10.37;;;7.20;;
7045;SDS011;3564;53.326;10.356;2023-02-28T08:17:17;13.27;;;7.23;;
7045;SDS011;3564;53.326;10.356;2023-02-28T08:19:46;10.83;;;7.10;;
7045;SDS011;3564;53.326;10.356;2023-02-28T08:22:12;12.53;;;7.53;;
7045;SDS011;3564;53.326;10.356;2023-02-28T08:24:38;12.40;;;7.00;;
7045;SDS011;3564;53.326;10.356;2023-02-28T08:27:06;10.87;;;6.97;;
7045;SDS011;3564;53.326;10.356;2023-02-28T08:29:36;10.83;;;6.93;;
7045;SDS011;3564;53.326;10.356;2023-02-28T08:32:03;9.60;;;6.63;;
7045;SDS011;3564;53.326;10.356;2023-02-28T08:34:30;8.53;;;5.80;;
7045;SDS011;3564;53.326;10.356;2023-02-28T08:36:56;7.23;;;5.60;;
7045;SDS011;3564;53.326;10.356;2023-02-28T08:39:22;9.43;;;6.00;;
7045;SDS011;3564;53.326;10.356;2023-02-28T08:41:47;7.00;;;5.47;;
7045;SDS011;3564;53.326;10.356;2023-02-28T08:44:13;5.70;;;4.67;;
7045;SDS011;3564;53.326;10.356;2023-02-28T08:46:38;7.37;;;5.10;;
7045;SDS011;3564;53.326;10.356;2023-02-28T08:49:04;9.60;;;6.37;;
7045;SDS011;3564;53.326;10.356;2023-02-28T08:51:30;8.87;;;6.07;;
7045;SDS011;3564;53.326;10.356;2023-02-28T08:53:57;10.37;;;6.47;;
7045;SDS011;3564;53.326;10.356;2023-02-28T08:56:25;14.77;;;9.13;;
7045;SDS011;3564;53.326;10.356;2023-02-28T08:58:51;10.40;;;7.27;;
7045;SDS011;3564;53.326;10.356;2023-02-28T09:01:38;10.07;;;7.60;;
7045;SDS011;3564;53.326;10.356;2023-02-28T09:04:06;8.50;;;6.00;;
7045;SDS011;3564;53.326;10.356;2023-02-28T09:06:33;5.97;;;4.70;;
7045;SDS011;3564;53.326;10.356;2023-02-28T09:08:59;7.23;;;4.23;;
7045;SDS011;3564;53.326;10.356;2023-02-28T09:11:26;5.73;;;4.43;;
7045;SDS011;3564;53.326;10.356;2023-02-28T09:13:53;7.23;;;4.40;;
7045;SDS011;3564;53.326;10.356;2023-02-28T09:16:20;15.27;;;9.37;;
7045;SDS011;3564;53.326;10.356;2023-02-28T09:18:46;17.93;;;10.83;;
7045;SDS011;3564;53.326;10.356;2023-02-28T09:21:14;18.17;;;10.63;;
7045;SDS011;3564;53.326;10.356;2023-02-28T09:23:41;11.23;;;7.40;;
7045;SDS011;3564;53.326;10.356;2023-02-28T09:26:11;10.67;;;7.50;;
7045;SDS011;3564;53.326;10.356;2023-02-28T09:28:39;8.13;;;5.73;;
7045;SDS011;3564;53.326;10.356;2023-02-28T09:31:04;6.47;;;4.80;;
7045;SDS011;3564;53.326;10.356;2023-02-28T09:33:30;5.47;;;4.53;;
7045;SDS011;3564;53.326;10.356;2023-02-28T09:36:02;4.93;;;3.93;;
7045;SDS011;3564;53.326;10.356;2023-02-28T09:38:28;6.47;;;4.17;;
7045;SDS011;3564;53.326;10.356;2023-02-28T09:40:56;5.93;;;4.30;;
7045;SDS011;3564;53.326;10.356;2023-02-28T09:43:29;6.07;;;4.43;;
7045;SDS011;3564;53.326;10.356;2023-02-28T09:46:08;8.53;;;5.47;;
7045;SDS011;3564;53.326;10.356;2023-02-28T09:48:48;9.67;;;4.87;;
7045;SDS011;3564;53.326;10.356;2023-02-28T09:51:22;5.47;;;3.83;;
7045;SDS011;3564;53.326;10.356;2023-02-28T09:54:00;13.80;;;8.60;;
7045;SDS011;3564;53.326;10.356;2023-02-28T09:56:36;11.30;;;6.90;;
7045;SDS011;3564;53.326;10.356;2023-02-28T10:04:42;8.03;;;6.30;;
7045;SDS011;3564;53.326;10.356;2023-02-28T10:10:04;7.30;;;3.73;;
7045;SDS011;3564;53.326;10.356;2023-02-28T10:12:43;5.50;;;3.43;;
7045;SDS011;3564;53.326;10.356;2023-02-28T10:15:13;4.67;;;3.40;;
7045;SDS011;3564;53.326;10.356;2023-02-28T10:17:41;5.13;;;3.20;;
7045;SDS011;3564;53.326;10.356;2023-02-28T10:20:11;3.53;;;3.10;;
7045;SDS011;3564;53.326;10.356;2023-02-28T10:22:58;2.77;;;2.50;;
7045;SDS011;3564;53.326;10.356;2023-02-28T10:25:33;4.93;;;2.93;;
7045;SDS011;3564;53.326;10.356;2023-02-28T10:28:04;5.60;;;4.10;;
7045;SDS011;3564;53.326;10.356;2023-02-28T10:30:39;5.60;;;3.77;;
7045;SDS011;3564;53.326;10.356;2023-02-28T10:33:22;5.43;;;4.30;;
7045;SDS011;3564;53.326;10.356;2023-02-28T10:35:50;3.80;;;3.00;;
7045;SDS011;3564;53.326;10.356;2023-02-28T10:38:50;2.20;;;1.53;;
7045;SDS011;3564;53.326;10.356;2023-02-28T10:41:17;1.87;;;1.47;;
7045;SDS011;3564;53.326;10.356;2023-02-28T10:46:46;2.97;;;2.47;;
7045;SDS011;3564;53.326;10.356;2023-02-28T10:49:22;2.30;;;1.80;;
7045;SDS011;3564;53.326;10.356;2023-02-28T10:51:57;2.20;;;1.80;;
7045;SDS011;3564;53.326;10.356;2023-02-28T10:54:35;2.27;;;1.93;;
7045;SDS011;3564;53.326;10.356;2023-02-28T10:57:19;2.90;;;2.20;;
7045;SDS011;3564;53.326;10.356;2023-02-28T10:59:51;3.37;;;1.87;;
7045;SDS011;3564;53.326;10.356;2023-02-28T11:02:34;2.67;;;1.70;;
7045;SDS011;3564;53.326;10.356;2023-02-28T11:05:02;3.23;;;2.27;;
7045;SDS011;3564;53.326;10.356;2023-02-28T11:07:51;2.93;;;2.30;;
7045;SDS011;3564;53.326;10.356;2023-02-28T11:10:30;3.70;;;2.40;;
7045;SDS011;3564;53.326;10.356;2023-02-28T11:12:59;3.00;;;2.03;;
7045;SDS011;3564;53.326;10.356;2023-02-28T11:15:27;4.63;;;2.50;;
7045;SDS011;3564;53.326;10.356;2023-02-28T11:20:48;4.87;;;2.30;;
7045;SDS011;3564;53.326;10.356;2023-02-28T11:23:19;5.60;;;2.10;;
7045;SDS011;3564;53.326;10.356;2023-02-28T11:25:47;3.10;;;2.00;;
7045;SDS011;3564;53.326;10.356;2023-02-28T11:28:25;2.43;;;2.07;;
7045;SDS011;3564;53.326;10.356;2023-02-28T11:36:03;3.17;;;2.13;;
7045;SDS011;3564;53.326;10.356;2023-02-28T11:38:34;2.13;;;1.67;;
7045;SDS011;3564;53.326;10.356;2023-02-28T11:41:09;5.73;;;2.70;;
7045;SDS011;3564;53.326;10.356;2023-02-28T11:55:19;3.67;;;1.97;;
7045;SDS011;3564;53.326;10.356;2023-02-28T12:01:11;4.00;;;2.70;;
7045;SDS011;3564;53.326;10.356;2023-02-28T12:12:10;1.93;;;1.70;;
7045;SDS011;3564;53.326;10.356;2023-02-28T12:17:52;2.13;;;1.57;;
7045;SDS011;3564;53.326;10.356;2023-02-28T12:20:24;1.50;;;1.40;;
7045;SDS011;3564;53.326;10.356;2023-02-28T12:23:10;1.70;;;1.50;;
7045;SDS011;3564;53.326;10.356;2023-02-28T12:29:12;1.67;;;1.57;;
7045;SDS011;3564;53.326;10.356;2023-02-28T12:31:56;3.47;;;1.80;;
7045;SDS011;3564;53.326;10.356;2023-02-28T12:34:34;2.43;;;1.80;;
7045;SDS011;3564;53.326;10.356;2023-02-28T12:37:04;7.27;;;2.93;;
7045;SDS011;3564;53.326;10.356;2023-02-28T12:40:04;3.13;;;2.40;;
7045;SDS011;3564;53.326;10.356;2023-02-28T12:42:38;2.53;;;1.83;;
7045;SDS011;3564;53.326;10.356;2023-02-28T12:45:11;4.30;;;3.20;;
7045;SDS011;3564;53.326;10.356;2023-02-28T12:47:42;2.20;;;2.00;;
7045;SDS011;3564;53.326;10.356;2023-02-28T12:50:11;2.00;;;1.60;;
7045;SDS011;3564;53.326;10.356;2023-02-28T13:09:15;5.70;;;4.10;;
7045;SDS011;3564;53.326;10.356;2023-02-28T13:11:50;2.47;;;2.10;;
7045;SDS011;3564;53.326;10.356;2023-02-28T13:14:24;3.00;;;2.27;;
7045;SDS011;3564;53.326;10.356;2023-02-28T13:19:34;2.77;;;2.03;;
7045;SDS011;3564;53.326;10.356;2023-02-28T13:22:03;2.37;;;2.17;;
7045;SDS011;3564;53.326;10.356;2023-02-28T13:24:39;2.10;;;1.73;;
7045;SDS011;3564;53.326;10.356;2023-02-28T13:35:45;1.87;;;1.73;;
7045;SDS011;3564;53.326;10.356;2023-02-28T13:38:14;2.83;;;2.17;;
7045;SDS011;3564;53.326;10.356;2023-02-28T13:40:42;6.47;;;3.30;;
7045;SDS011;3564;53.326;10.356;2023-02-28T13:43:08;2.97;;;2.00;;
7045;SDS011;3564;53.326;10.356;2023-02-28T13:45:34;10.73;;;6.13;;
7045;SDS011;3564;53.326;10.356;2023-02-28T13:48:19;11.33;;;6.80;;
7045;SDS011;3564;53.326;10.356;2023-02-28T13:50:50;3.47;;;2.50;;
7045;SDS011;3564;53.326;10.356;2023-02-28T13:55:58;15.57;;;8.20;;
7045;SDS011;3564;53.326;10.356;2023-02-28T13:58:54;6.93;;;4.30;;
7045;SDS011;3564;53.326;10.356;2023-02-28T14:01:30;2.97;;;1.60;;
7045;SDS011;3564;53.326;10.356;2023-02-28T14:06:54;1.60;;;1.50;;
7045;SDS011;3564;53.326;10.356;2023-02-28T14:09:25;2.17;;;1.50;;
7045;SDS011;3564;53.326;10.356;2023-02-28T14:11:55;2.37;;;1.40;;
7045;SDS011;3564;53.326;10.356;2023-02-28T14:16:59;1.40;;;1.10;;
7045;SDS011;3564;53.326;10.356;2023-02-28T14:19:27;2.00;;;1.27;;
7045;SDS011;3564;53.326;10.356;2023-02-28T14:22:00;1.50;;;1.40;;
7045;SDS011;3564;53.326;10.356;2023-02-28T14:24:40;2.60;;;1.23;;
7045;SDS011;3564;53.326;10.356;2023-02-28T14:27:36;1.87;;;1.13;;
7045;SDS011;3564;53.326;10.356;2023-02-28T14:30:14;2.47;;;1.20;;
7045;SDS011;3564;53.326;10.356;2023-02-28T14:38:21;2.67;;;1.40;;
7045;SDS011;3564;53.326;10.356;2023-02-28T14:40:51;1.30;;;1.20;;
7045;SDS011;3564;53.326;10.356;2023-02-28T14:43:23;1.57;;;1.30;;
7045;SDS011;3564;53.326;10.356;2023-02-28T14:45:52;1.47;;;1.30;;
7045;SDS011;3564;53.326;10.356;2023-02-28T14:48:21;1.67;;;1.40;;
7045;SDS011;3564;53.326;10.356;2023-02-28T14:50:49;1.50;;;1.40;;
7045;SDS011;3564;53.326;10.356;2023-02-28T14:53:18;2.33;;;1.60;;
7045;SDS011;3564;53.326;10.356;2023-02-28T14:55:46;1.43;;;1.00;;
7045;SDS011;3564;53.326;10.356;2023-02-28T14:58:22;2.07;;;1.30;;
7045;SDS011;3564;53.326;10.356;2023-02-28T15:00:56;3.20;;;1.60;;
7045;SDS011;3564;53.326;10.356;2023-02-28T15:05:58;1.67;;;1.00;;
7045;SDS011;3564;53.326;10.356;2023-02-28T15:08:29;1.40;;;1.30;;
7045;SDS011;3564;53.326;10.356;2023-02-28T15:11:04;1.40;;;1.30;;
7045;SDS011;3564;53.326;10.356;2023-02-28T15:13:40;1.80;;;1.50;;
7045;SDS011;3564;53.326;10.356;2023-02-28T15:16:13;1.40;;;1.30;;
7045;SDS011;3564;53.326;10.356;2023-02-28T15:18:54;1.70;;;1.60;;
7045;SDS011;3564;53.326;10.356;2023-02-28T15:24:06;1.70;;;1.60;;
7045;SDS011;3564;53.326;10.356;2023-02-28T15:26:43;1.50;;;1.40;;
7045;SDS011;3564;53.326;10.356;2023-02-28T15:29:19;1.60;;;1.47;;
7045;SDS011;3564;53.326;10.356;2023-02-28T15:31:55;1.50;;;1.40;;
7045;SDS011;3564;53.326;10.356;2023-02-28T15:34:38;1.40;;;1.30;;
7045;SDS011;3564;53.326;10.356;2023-02-28T15:37:23;2.20;;;1.40;;
7045;SDS011;3564;53.326;10.356;2023-02-28T15:40:14;1.57;;;1.20;;
7045;SDS011;3564;53.326;10.356;2023-02-28T15:45:27;9.37;;;7.37;;
7045;SDS011;3564;53.326;10.356;2023-02-28T15:47:57;2.27;;;1.80;;
7045;SDS011;3564;53.326;10.356;2023-02-28T15:50:23;1.40;;;1.30;;
7045;SDS011;3564;53.326;10.356;2023-02-28T15:52:49;1.83;;;1.43;;
7045;SDS011;3564;53.326;10.356;2023-02-28T15:55:22;1.50;;;1.40;;
7045;SDS011;3564;53.326;10.356;2023-02-28T15:57:52;1.40;;;1.30;;
7045;SDS011;3564;53.326;10.356;2023-02-28T16:00:21;1.83;;;1.63;;
7045;SDS011;3564;53.326;10.356;2023-02-28T16:02:49;1.70;;;1.60;;
7045;SDS011;3564;53.326;10.356;2023-02-28T16:05:19;1.80;;;1.70;;
7045;SDS011;3564;53.326;10.356;2023-02-28T16:07:55;3.47;;;1.93;;
7045;SDS011;3564;53.326;10.356;2023-02-28T16:10:23;2.33;;;1.53;;
7045;SDS011;3564;53.326;10.356;2023-02-28T16:12:52;1.50;;;1.40;;
7045;SDS011;3564;53.326;10.356;2023-02-28T16:15:26;2.47;;;1.20;;
7045;SDS011;3564;53.326;10.356;2023-02-28T16:17:54;1.93;;;1.50;;
7045;SDS011;3564;53.326;10.356;2023-02-28T16:20:25;1.60;;;1.50;;
7045;SDS011;3564;53.326;10.356;2023-02-28T16:22:55;5.00;;;1.80;;
7045;SDS011;3564;53.326;10.356;2023-02-28T16:25:40;1.23;;;1.13;;
7045;SDS011;3564;53.326;10.356;2023-02-28T16:28:11;2.53;;;1.43;;
7045;SDS011;3564;53.326;10.356;2023-02-28T16:30:47;1.57;;;1.30;;
7045;SDS011;3564;53.326;10.356;2023-02-28T16:33:13;19.43;;;2.60;;
7045;SDS011;3564;53.326;10.356;2023-02-28T16:35:41;1.70;;;1.20;;
7045;SDS011;3564;53.326;10.356;2023-02-28T16:38:07;3.47;;;1.40;;
7045;SDS011;3564;53.326;10.356;2023-02-28T16:40:33;2.83;;;1.53;;
7045;SDS011;3564;53.326;10.356;2023-02-28T16:43:03;4.30;;;1.40;;
7045;SDS011;3564;53.326;10.356;2023-02-28T16:45:32;1.63;;;1.40;;
7045;SDS011;3564;53.326;10.356;2023-02-28T16:47:58;1.50;;;1.20;;
7045;SDS011;3564;53.326;10.356;2023-02-28T16:50:26;3.77;;;1.60;;
7045;SDS011;3564;53.326;10.356;2023-02-28T16:52:54;2.07;;;1.50;;
7045;SDS011;3564;53.326;10.356;2023-02-28T16:55:21;2.00;;;1.40;;
7045;SDS011;3564;53.326;10.356;2023-02-28T16:57:52;2.20;;;1.43;;
7045;SDS011;3564;53.326;10.356;2023-02-28T17:00:38;2.07;;;1.60;;
7045;SDS011;3564;53.326;10.356;2023-02-28T17:03:04;1.70;;;1.50;;
7045;SDS011;3564;53.326;10.356;2023-02-28T17:05:33;1.37;;;1.27;;
7045;SDS011;3564;53.326;10.356;2023-02-28T17:08:02;2.07;;;1.50;;
7045;SDS011;3564;53.326;10.356;2023-02-28T17:10:28;2.43;;;1.53;;
7045;SDS011;3564;53.326;10.356;2023-02-28T17:12:54;1.67;;;1.57;;
7045;SDS011;3564;53.326;10.356;2023-02-28T17:15:19;2.43;;;1.40;;
7045;SDS011;3564;53.326;10.356;2023-02-28T17:17:46;3.50;;;2.57;;
7045;SDS011;3564;53.326;10.356;2023-02-28T17:20:18;4.03;;;2.33;;
7045;SDS011;3564;53.326;10.356;2023-02-28T17:22:49;14.37;;;8.10;;
7045;SDS011;3564;53.326;10.356;2023-02-28T17:25:16;33.60;;;18.40;;
7045;SDS011;3564;53.326;10.356;2023-02-28T17:27:42;25.80;;;14.43;;
7045;SDS011;3564;53.326;10.356;2023-02-28T17:30:16;61.50;;;31.17;;